Time;durP1;ratioP1;P1;durP2;ratioP2;P2;SDS_P1;SDS_P2;PMS_P1;PMS_P2;Temp;Humidity;BMP_temperature;BMP_pressure;BME280_temperature;BME280_humidity;BME280_pressure;Samples;Min_cycle;Max_cycle;Signal;HPM_P1;HPM_P2
2023/07/28 00:02:22;;;;;;;67.15;22.13;;;;;;;;;;5093524;28;20038;-83
2023/07/28 00:04:48;;;;;;;67.20;22.60;;;;;;;;;;5078174;28;20134;-82
2023/07/28 00:07:14;;;;;;;71.85;24.08;;;;;;;;;;5097704;28;20612;-82
2023/07/28 00:09:40;;;;;;;68.47;25.13;;;;;;;;;;5078352;28;20111;-83
2023/07/28 00:12:07;;;;;;;74.05;24.50;;;;;;;;;;5080177;28;20488;-83
2023/07/28 00:14:33;;;;;;;77.53;27.75;;;;;;;;;;5082613;28;20067;-83
2023/07/28 00:16:59;;;;;;;68.70;26.23;;;;;;;;;;5081845;28;20048;-83
2023/07/28 00:19:25;;;;;;;73.15;26.55;;;;;;;;;;5077719;28;20085;-81
2023/07/28 00:21:52;;;;;;;68.90;25.55;;;;;;;;;;5077325;28;20069;-80
2023/07/28 00:24:18;;;;;;;77.85;27.98;;;;;;;;;;5059859;28;20069;-81
2023/07/28 00:26:44;;;;;;;81.75;29.58;;;;;;;;;;5073803;28;20043;-81
2023/07/28 00:29:10;;;;;;;87.68;29.40;;;;;;;;;;5060298;28;20051;-81
2023/07/28 00:31:36;;;;;;;84.82;29.63;;;;;;;;;;5077644;28;20055;-81
2023/07/28 00:34:03;;;;;;;79.28;30.88;;;;;;;;;;5080523;28;21056;-82
2023/07/28 00:36:30;;;;;;;93.32;30.33;;;;;;;;;;5079463;28;20420;-82
2023/07/28 00:38:56;;;;;;;81.32;30.08;;;;;;;;;;5077246;28;20470;-81
2023/07/28 00:41:22;;;;;;;90.22;31.63;;;;;;;;;;5061410;28;20039;-81
2023/07/28 00:43:48;;;;;;;77.07;31.13;;;;;;;;;;5063712;28;20073;-81
2023/07/28 00:46:15;;;;;;;93.25;29.90;;;;;;;;;;5076394;28;20048;-81
2023/07/28 00:48:41;;;;;;;93.32;31.70;;;;;;;;;;5076217;28;20048;-80
2023/07/28 00:51:08;;;;;;;84.93;28.27;;;;;;;;;;5096146;28;20046;-80
2023/07/28 00:53:34;;;;;;;87.63;31.20;;;;;;;;;;5100694;28;20048;-80
2023/07/28 00:56:01;;;;;;;104.07;31.83;;;;;;;;;;5071555;28;20154;-81
2023/07/28 00:58:27;;;;;;;82.28;29.67;;;;;;;;;;5075777;28;20047;-81
2023/07/28 01:00:54;;;;;;;95.93;31.90;;;;;;;;;;5087450;28;20051;-81
2023/07/28 01:03:21;;;;;;;77.60;29.27;;;;;;;;;;5085316;28;20561;-80
2023/07/28 01:05:58;;;;;;;84.15;28.00;;;;;;;;;;5081752;28;20055;-81
2023/07/28 01:08:37;;;;;;;70.03;27.05;;;;;;;;;;5095432;28;20047;-81
2023/07/28 01:11:03;;;;;;;73.35;25.83;;;;;;;;;;5073968;28;20134;-80
2023/07/28 01:13:29;;;;;;;89.03;31.23;;;;;;;;;;5093649;27;20083;-81
2023/07/28 01:15:55;;;;;;;84.47;29.52;;;;;;;;;;5091819;28;20144;-81
2023/07/28 01:18:22;;;;;;;86.88;29.25;;;;;;;;;;5071358;28;20491;-79
2023/07/28 01:20:48;;;;;;;84.28;27.85;;;;;;;;;;5075017;28;20059;-81
2023/07/28 01:23:22;;;;;;;97.30;29.35;;;;;;;;;;5095001;27;20107;-81
2023/07/28 01:25:48;;;;;;;;;;;;;;;;;;5089775;28;20047;-81
2023/07/28 01:28:16;;;;;;;81.05;27.92;;;;;;;;;;5086766;27;19923;-81
2023/07/28 01:30:42;;;;;;;87.05;29.02;;;;;;;;;;5083619;28;20066;-82
2023/07/28 01:33:08;;;;;;;91.28;30.25;;;;;;;;;;5071541;28;20138;-81
2023/07/28 01:35:37;;;;;;;86.70;30.13;;;;;;;;;;5072718;28;20047;-80
2023/07/28 01:38:03;;;;;;;94.55;29.25;;;;;;;;;;5071951;28;20079;-81
2023/07/28 01:40:30;;;;;;;89.05;30.23;;;;;;;;;;5072293;28;20058;-81
2023/07/28 01:42:57;;;;;;;84.38;29.33;;;;;;;;;;5092531;28;20038;-80
2023/07/28 01:45:23;;;;;;;91.85;29.15;;;;;;;;;;5087318;28;20043;-81
2023/07/28 01:47:49;;;;;;;80.22;28.45;;;;;;;;;;5072520;28;20085;-81
2023/07/28 01:50:15;;;;;;;99.65;31.42;;;;;;;;;;5072108;28;20127;-82
2023/07/28 01:52:41;;;;;;;83.65;28.60;;;;;;;;;;5070171;28;20039;-81
2023/07/28 01:55:07;;;;;;;100.90;30.17;;;;;;;;;;5055977;28;20138;-82
2023/07/28 01:57:34;;;;;;;87.00;28.98;;;;;;;;;;5093059;28;20052;-80
2023/07/28 02:00:00;;;;;;;77.72;26.40;;;;;;;;;;5090051;28;20058;-81
2023/07/28 02:02:26;;;;;;;85.43;26.77;;;;;;;;;;5071596;28;20077;-81
2023/07/28 02:04:52;;;;;;;72.05;26.90;;;;;;;;;;5053901;28;20098;-81
2023/07/28 02:07:19;;;;;;;81.93;25.85;;;;;;;;;;5070075;28;20561;-81
2023/07/28 02:09:45;;;;;;;78.63;26.80;;;;;;;;;;5068869;28;20126;-82
2023/07/28 02:12:11;;;;;;;83.78;26.55;;;;;;;;;;5071439;28;20045;-80
2023/07/28 02:14:37;;;;;;;77.18;25.88;;;;;;;;;;5068787;28;20466;-80
2023/07/28 02:17:03;;;;;;;67.28;26.55;;;;;;;;;;5071971;28;20048;-81
2023/07/28 02:19:29;;;;;;;70.43;25.48;;;;;;;;;;5072783;28;20577;-81
2023/07/28 02:21:55;;;;;;;73.18;25.48;;;;;;;;;;5069483;28;20055;-80
2023/07/28 02:24:21;;;;;;;76.50;25.27;;;;;;;;;;5069964;28;20052;-80
2023/07/28 02:26:47;;;;;;;75.00;26.65;;;;;;;;;;5069928;28;20060;-80
2023/07/28 02:29:13;;;;;;;79.90;25.60;;;;;;;;;;5070265;28;20231;-81
2023/07/28 02:31:39;;;;;;;77.35;26.08;;;;;;;;;;5052493;28;20135;-80
2023/07/28 02:34:05;;;;;;;78.50;25.95;;;;;;;;;;5072713;28;20044;-81
2023/07/28 02:36:32;;;;;;;67.03;24.15;;;;;;;;;;5081874;28;20058;-81
2023/07/28 02:38:58;;;;;;;78.35;26.15;;;;;;;;;;5082647;28;20051;-79
2023/07/28 02:41:24;;;;;;;64.50;22.80;;;;;;;;;;5076157;28;20051;-80
2023/07/28 02:43:50;;;;;;;79.60;23.85;;;;;;;;;;5078291;28;20055;-80
2023/07/28 02:46:16;;;;;;;62.53;22.23;;;;;;;;;;5072404;28;20056;-79
2023/07/28 02:48:42;;;;;;;71.35;24.27;;;;;;;;;;5048703;28;20647;-80
2023/07/28 02:51:08;;;;;;;67.93;23.75;;;;;;;;;;5047731;28;20047;-80
2023/07/28 02:53:34;;;;;;;84.85;25.58;;;;;;;;;;5067981;28;20064;-80
2023/07/28 02:56:00;;;;;;;76.68;25.90;;;;;;;;;;5072681;28;20044;-81
2023/07/28 02:58:26;;;;;;;76.70;25.67;;;;;;;;;;5068739;28;20055;-80
2023/07/28 03:00:53;;;;;;;82.47;27.17;;;;;;;;;;5071137;28;20063;-80
2023/07/28 03:03:19;;;;;;;81.22;26.20;;;;;;;;;;5070884;28;20052;-81
2023/07/28 03:05:45;;;;;;;89.35;27.42;;;;;;;;;;5067215;28;20050;-80
2023/07/28 03:08:11;;;;;;;92.97;27.90;;;;;;;;;;5067062;28;20059;-80
2023/07/28 03:10:38;;;;;;;77.75;25.52;;;;;;;;;;5069653;28;20141;-80
2023/07/28 03:13:04;;;;;;;92.88;26.27;;;;;;;;;;5068460;28;20044;-80
2023/07/28 03:15:30;;;;;;;77.53;26.23;;;;;;;;;;5067613;28;20135;-80
2023/07/28 03:17:56;;;;;;;84.18;25.15;;;;;;;;;;5069157;28;20044;-80
2023/07/28 03:20:22;;;;;;;84.35;26.73;;;;;;;;;;5073952;28;20170;-81
2023/07/28 03:22:48;;;;;;;76.00;26.05;;;;;;;;;;5072224;28;20079;-80
2023/07/28 03:25:14;;;;;;;82.28;24.75;;;;;;;;;;5074561;28;20175;-80
2023/07/28 03:27:40;;;;;;;71.57;23.27;;;;;;;;;;5070533;28;20048;-81
2023/07/28 03:30:09;;;;;;;82.93;25.60;;;;;;;;;;5067717;28;20067;-81
2023/07/28 03:32:35;;;;;;;65.68;23.83;;;;;;;;;;5068284;28;20131;-81
2023/07/28 03:35:01;;;;;;;75.05;25.63;;;;;;;;;;5062633;28;20044;-81
2023/07/28 03:37:27;;;;;;;82.15;24.40;;;;;;;;;;5063735;28;20063;-79
2023/07/28 03:39:53;;;;;;;73.80;24.33;;;;;;;;;;5047643;28;20055;-81
2023/07/28 03:42:19;;;;;;;72.53;24.98;;;;;;;;;;5064482;28;20873;-81
2023/07/28 03:44:45;;;;;;;76.22;25.52;;;;;;;;;;5063837;28;20044;-80
2023/07/28 03:47:11;;;;;;;81.82;25.02;;;;;;;;;;5048887;28;21912;-80
2023/07/28 03:49:37;;;;;;;84.85;25.45;;;;;;;;;;5071392;28;20083;-79
2023/07/28 03:52:04;;;;;;;71.20;24.75;;;;;;;;;;5070641;28;20106;-80
2023/07/28 03:54:30;;;;;;;79.53;25.10;;;;;;;;;;5057037;28;20044;-80
2023/07/28 03:56:56;;;;;;;74.28;25.67;;;;;;;;;;5073466;28;20106;-80
2023/07/28 03:59:22;;;;;;;82.90;25.80;;;;;;;;;;5047762;28;20187;-80
2023/07/28 04:01:48;;;;;;;77.03;24.48;;;;;;;;;;5049947;28;20067;-80
2023/07/28 04:04:14;;;;;;;76.43;25.75;;;;;;;;;;5074903;28;20522;-79
2023/07/28 04:06:44;;;;;;;75.10;25.42;;;;;;;;;;5052727;28;20044;-80
2023/07/28 04:09:11;;;;;;;76.45;25.13;;;;;;;;;;5057178;28;20052;-79
2023/07/28 04:11:37;;;;;;;79.00;24.45;;;;;;;;;;5093479;28;20054;-78
2023/07/28 04:14:04;;;;;;;89.88;25.60;;;;;;;;;;5077433;28;20402;-79
2023/07/28 04:16:30;;;;;;;82.85;26.33;;;;;;;;;;5103348;27;20047;-79
2023/07/28 04:18:56;;;;;;;86.03;26.42;;;;;;;;;;5097326;28;20051;-80
2023/07/28 04:21:22;;;;;;;76.80;26.30;;;;;;;;;;5066861;28;20059;-75
2023/07/28 04:23:49;;;;;;;83.15;26.00;;;;;;;;;;5082211;27;20047;-77
2023/07/28 04:26:15;;;;;;;76.07;26.52;;;;;;;;;;5083047;28;20051;-76
2023/07/28 04:28:41;;;;;;;81.57;27.13;;;;;;;;;;5066858;28;20048;-76
2023/07/28 04:31:07;;;;;;;78.75;27.48;;;;;;;;;;5071216;28;20047;-75
2023/07/28 04:33:33;;;;;;;76.97;26.75;;;;;;;;;;5095055;28;20602;-77
2023/07/28 04:36:00;;;;;;;71.70;24.98;;;;;;;;;;5088366;28;20052;-76
2023/07/28 04:38:26;;;;;;;78.72;25.38;;;;;;;;;;5071494;28;20051;-77
2023/07/28 04:40:52;;;;;;;63.90;25.10;;;;;;;;;;5067440;28;20137;-77
2023/07/28 04:43:18;;;;;;;80.13;25.00;;;;;;;;;;5090106;28;20039;-77
2023/07/28 04:45:45;;;;;;;73.75;24.80;;;;;;;;;;5068996;28;20763;-76
2023/07/28 04:48:11;;;;;;;68.43;25.60;;;;;;;;;;5055480;28;20060;-75
2023/07/28 04:50:37;;;;;;;66.30;24.88;;;;;;;;;;5087427;27;20052;-77
2023/07/28 04:53:03;;;;;;;69.57;26.83;;;;;;;;;;5085612;27;20043;-77
2023/07/28 04:55:29;;;;;;;71.13;27.88;;;;;;;;;;5068993;28;20051;-76
2023/07/28 04:57:56;;;;;;;76.07;26.15;;;;;;;;;;5068200;28;20105;-76
2023/07/28 05:00:22;;;;;;;75.30;25.27;;;;;;;;;;5085536;28;20044;-77
2023/07/28 05:02:48;;;;;;;64.78;24.70;;;;;;;;;;5083322;28;20054;-76
2023/07/28 05:05:15;;;;;;;56.67;26.23;;;;;;;;;;5064371;28;20051;-76
2023/07/28 05:07:41;;;;;;;56.92;24.60;;;;;;;;;;5048915;28;20336;-77
2023/07/28 05:10:07;;;;;;;63.50;23.50;;;;;;;;;;5065207;28;20055;-77
2023/07/28 05:12:33;;;;;;;65.45;24.98;;;;;;;;;;5066655;28;20485;-76
2023/07/28 05:15:00;;;;;;;57.28;22.48;;;;;;;;;;5083860;28;20044;-77
2023/07/28 05:17:26;;;;;;;50.83;21.92;;;;;;;;;;5085813;28;20476;-77
2023/07/28 05:19:52;;;;;;;51.97;21.77;;;;;;;;;;5068370;28;20063;-76
2023/07/28 05:22:18;;;;;;;55.65;21.50;;;;;;;;;;5063215;28;20047;-77
2023/07/28 05:24:45;;;;;;;51.28;21.00;;;;;;;;;;5084904;28;20135;-77
2023/07/28 05:27:12;;;;;;;46.70;19.58;;;;;;;;;;5068285;28;20060;-78
2023/07/28 05:29:38;;;;;;;46.85;19.17;;;;;;;;;;5072191;28;20149;-78
2023/07/28 05:32:04;;;;;;;50.45;20.85;;;;;;;;;;5085431;28;20054;-77
2023/07/28 05:34:30;;;;;;;45.33;19.17;;;;;;;;;;5085945;27;20316;-77
2023/07/28 05:36:57;;;;;;;39.70;18.55;;;;;;;;;;5064502;28;20043;-77
2023/07/28 05:39:23;;;;;;;47.65;19.55;;;;;;;;;;5068227;27;20117;-79
2023/07/28 05:41:49;;;;;;;43.20;19.52;;;;;;;;;;5067914;28;20056;-74
2023/07/28 05:44:15;;;;;;;41.30;20.92;;;;;;;;;;5065640;28;20048;-74
2023/07/28 05:46:41;;;;;;;41.20;18.77;;;;;;;;;;5084831;27;20044;-74
2023/07/28 05:49:07;;;;;;;43.13;19.42;;;;;;;;;;5053116;28;20052;-73
2023/07/28 05:51:33;;;;;;;43.13;20.65;;;;;;;;;;5068944;28;20105;-73
2023/07/28 05:53:59;;;;;;;49.08;21.10;;;;;;;;;;5068311;27;20063;-72
2023/07/28 05:56:25;;;;;;;54.00;22.10;;;;;;;;;;5051493;28;20110;-73
2023/07/28 05:58:52;;;;;;;42.63;20.02;;;;;;;;;;5067454;28;20047;-73
2023/07/28 06:01:18;;;;;;;49.88;20.52;;;;;;;;;;5066366;28;20055;-74
2023/07/28 06:03:45;;;;;;;47.45;20.20;;;;;;;;;;5082271;28;20048;-73
2023/07/28 06:06:12;;;;;;;50.95;21.23;;;;;;;;;;5043298;28;20175;-73
2023/07/28 06:08:38;;;;;;;42.03;20.13;;;;;;;;;;5049867;28;20098;-72
2023/07/28 06:11:05;;;;;;;45.13;20.67;;;;;;;;;;5065433;28;20052;-73
2023/07/28 06:13:31;;;;;;;40.42;20.23;;;;;;;;;;5035660;28;20052;-73
2023/07/28 06:15:58;;;;;;;38.15;19.98;;;;;;;;;;5048198;28;20194;-73
2023/07/28 06:18:24;;;;;;;39.88;20.00;;;;;;;;;;5052161;28;20056;-79
2023/07/28 06:20:50;;;;;;;33.33;18.90;;;;;;;;;;5058359;28;20048;-79
2023/07/28 06:23:16;;;;;;;28.52;18.35;;;;;;;;;;5079323;28;20669;-78
2023/07/28 06:25:45;;;;;;;31.08;18.27;;;;;;;;;;5047184;28;20036;-78
2023/07/28 06:28:11;;;;;;;27.17;16.55;;;;;;;;;;5076893;28;20060;-78
2023/07/28 06:30:38;;;;;;;28.17;15.35;;;;;;;;;;5055131;28;20048;-78
2023/07/28 06:33:07;;;;;;;28.70;16.20;;;;;;;;;;5075087;28;20047;-78
2023/07/28 06:35:33;;;;;;;26.98;15.55;;;;;;;;;;5073993;28;20114;-78
2023/07/28 06:38:00;;;;;;;23.85;16.20;;;;;;;;;;5058086;28;20072;-78
2023/07/28 06:40:26;;;;;;;32.10;16.52;;;;;;;;;;5071016;28;20504;-77
2023/07/28 06:42:52;;;;;;;26.50;16.70;;;;;;;;;;5070868;28;21547;-77
2023/07/28 06:45:18;;;;;;;29.15;17.17;;;;;;;;;;5072958;28;20079;-79
2023/07/28 06:47:44;;;;;;;21.02;16.08;;;;;;;;;;5056723;28;20051;-79
2023/07/28 06:50:15;;;;;;;31.77;16.33;;;;;;;;;;5075857;28;20051;-78
2023/07/28 06:52:41;;;;;;;28.92;17.02;;;;;;;;;;5075012;28;20162;-79
2023/07/28 06:55:07;;;;;;;22.73;16.67;;;;;;;;;;5056298;28;20401;-78
2023/07/28 06:57:34;;;;;;;25.95;16.63;;;;;;;;;;5060041;28;20048;-78
2023/07/28 07:00:01;;;;;;;22.95;16.45;;;;;;;;;;5073794;28;20453;-79
2023/07/28 07:02:27;;;;;;;28.58;17.63;;;;;;;;;;5056446;28;20127;-79
2023/07/28 07:04:53;;;;;;;26.45;17.27;;;;;;;;;;5064639;28;20055;-76
2023/07/28 07:07:19;;;;;;;24.08;17.58;;;;;;;;;;5092784;28;20105;-79
2023/07/28 07:09:46;;;;;;;24.98;17.80;;;;;;;;;;5073630;28;20058;-78
2023/07/28 07:12:13;;;;;;;21.40;16.33;;;;;;;;;;5078872;28;20056;-78
2023/07/28 07:14:39;;;;;;;22.63;16.75;;;;;;;;;;5061823;28;20059;-78
2023/07/28 07:17:06;;;;;;;21.27;17.60;;;;;;;;;;5079247;28;20043;-79
2023/07/28 07:19:32;;;;;;;23.02;17.42;;;;;;;;;;5072744;28;20066;-78
2023/07/28 07:21:58;;;;;;;18.58;15.10;;;;;;;;;;5057882;28;20055;-77
2023/07/28 07:24:24;;;;;;;16.02;14.00;;;;;;;;;;5092736;28;20050;-79
2023/07/28 07:26:50;;;;;;;15.50;13.25;;;;;;;;;;5074946;28;20056;-78
2023/07/28 07:29:17;;;;;;;17.13;13.90;;;;;;;;;;5075552;28;20056;-78
2023/07/28 07:31:43;;;;;;;16.80;13.30;;;;;;;;;;5078299;28;20391;-78
2023/07/28 07:34:09;;;;;;;17.65;12.68;;;;;;;;;;5077850;28;20048;-79
2023/07/28 07:36:35;;;;;;;14.10;11.35;;;;;;;;;;5078635;28;20137;-79
2023/07/28 07:39:01;;;;;;;13.27;11.73;;;;;;;;;;5107768;28;20445;-79
2023/07/28 07:41:29;;;;;;;18.80;11.05;;;;;;;;;;5087484;28;20047;-77
2023/07/28 07:43:55;;;;;;;14.68;10.55;;;;;;;;;;5078448;28;20055;-78
2023/07/28 07:46:21;;;;;;;13.70;10.07;;;;;;;;;;5060804;28;20089;-79
2023/07/28 07:48:47;;;;;;;13.35;10.30;;;;;;;;;;5094197;28;20036;-78
2023/07/28 07:51:14;;;;;;;11.65;9.57;;;;;;;;;;5076411;28;20151;-78
2023/07/28 07:53:40;;;;;;;12.52;10.13;;;;;;;;;;5048655;28;20052;-79
2023/07/28 07:56:07;;;;;;;11.38;8.25;;;;;;;;;;5077663;28;20051;-79
2023/07/28 07:58:33;;;;;;;9.57;7.50;;;;;;;;;;5078274;28;20442;-79
2023/07/28 08:01:00;;;;;;;9.23;7.45;;;;;;;;;;5099901;28;20135;-77
2023/07/28 08:03:27;;;;;;;7.47;6.68;;;;;;;;;;5085206;28;20046;-79
2023/07/28 08:05:53;;;;;;;7.93;7.13;;;;;;;;;;5065473;28;20052;-79
2023/07/28 08:08:19;;;;;;;10.10;7.78;;;;;;;;;;5076122;28;20114;-79
2023/07/28 08:10:47;;;;;;;17.02;9.40;;;;;;;;;;5077468;28;20503;-79
2023/07/28 08:13:13;;;;;;;10.95;8.90;;;;;;;;;;5081095;28;20133;-78
2023/07/28 08:15:39;;;;;;;9.85;8.10;;;;;;;;;;5080448;28;20040;-79
2023/07/28 08:18:05;;;;;;;11.18;7.68;;;;;;;;;;5081255;28;20863;-79
2023/07/28 08:20:31;;;;;;;9.32;8.20;;;;;;;;;;5081839;28;20110;-78
2023/07/28 08:22:57;;;;;;;7.65;6.63;;;;;;;;;;5100086;28;20036;-78
2023/07/28 08:25:23;;;;;;;7.38;6.38;;;;;;;;;;5082045;28;20059;-79
2023/07/28 08:27:50;;;;;;;8.20;6.53;;;;;;;;;;5095132;28;20554;-79
2023/07/28 08:30:16;;;;;;;5.65;5.00;;;;;;;;;;5080170;28;20126;-81
2023/07/28 08:32:43;;;;;;;6.60;4.95;;;;;;;;;;5078670;28;20051;-79
2023/07/28 08:35:09;;;;;;;11.23;6.40;;;;;;;;;;5096966;28;20875;-79
2023/07/28 08:37:35;;;;;;;11.43;8.52;;;;;;;;;;5068200;28;20046;-79
2023/07/28 08:40:02;;;;;;;10.00;8.02;;;;;;;;;;5085455;28;20434;-79
2023/07/28 08:42:30;;;;;;;9.52;8.00;;;;;;;;;;5085476;28;20056;-79
2023/07/28 08:44:56;;;;;;;9.10;7.25;;;;;;;;;;5088208;28;20170;-79
2023/07/28 08:47:24;;;;;;;5.30;4.80;;;;;;;;;;5072377;28;20134;-79
2023/07/28 08:49:50;;;;;;;5.75;4.95;;;;;;;;;;5083795;28;20086;-80
2023/07/28 08:52:17;;;;;;;6.03;5.43;;;;;;;;;;5085879;27;20120;-79
2023/07/28 08:54:43;;;;;;;5.00;4.60;;;;;;;;;;5104466;28;20055;-80
2023/07/28 08:57:11;;;;;;;9.77;5.05;;;;;;;;;;5085442;28;20055;-79
2023/07/28 08:59:41;;;;;;;5.97;5.22;;;;;;;;;;5085741;28;20047;-80
2023/07/28 09:02:10;;;;;;;6.80;5.97;;;;;;;;;;5101763;28;20496;-80
2023/07/28 09:04:36;;;;;;;8.25;4.32;;;;;;;;;;5102277;28;20096;-78
2023/07/28 09:07:04;;;;;;;5.40;4.50;;;;;;;;;;5067648;28;20092;-78
2023/07/28 09:09:32;;;;;;;9.70;4.88;;;;;;;;;;5100827;28;20122;-78
2023/07/28 09:12:00;;;;;;;5.75;4.57;;;;;;;;;;5085061;28;20134;-79
2023/07/28 09:14:26;;;;;;;6.53;3.65;;;;;;;;;;5099269;28;20104;-73
2023/07/28 09:16:53;;;;;;;4.68;3.20;;;;;;;;;;5071976;28;20036;-73
2023/07/28 09:19:20;;;;;;;3.90;3.35;;;;;;;;;;5071937;28;20055;-74
2023/07/28 09:21:57;;;;;;;4.13;3.80;;;;;;;;;;5074501;28;20052;-73
2023/07/28 09:24:23;;;;;;;4.63;4.18;;;;;;;;;;5090713;28;20063;-73
2023/07/28 09:26:50;;;;;;;3.67;3.38;;;;;;;;;;5066952;28;20045;-73
2023/07/28 09:29:20;;;;;;;4.00;3.30;;;;;;;;;;5068471;28;20133;-73
2023/07/28 09:31:46;;;;;;;4.55;4.15;;;;;;;;;;5067918;28;21977;-73
2023/07/28 09:34:13;;;;;;;8.68;4.97;;;;;;;;;;5087302;27;20051;-72
2023/07/28 09:36:39;;;;;;;4.78;4.28;;;;;;;;;;5069279;28;20062;-73
2023/07/28 09:39:09;;;;;;;5.15;4.47;;;;;;;;;;5086714;28;20075;-73
2023/07/28 09:41:38;;;;;;;4.95;4.20;;;;;;;;;;5072083;28;20154;-73
2023/07/28 09:44:05;;;;;;;4.93;4.43;;;;;;;;;;5068792;28;20057;-73
2023/07/28 09:46:35;;;;;;;5.53;5.03;;;;;;;;;;5069055;27;20074;-73
2023/07/28 09:49:03;;;;;;;4.80;4.32;;;;;;;;;;5083813;28;20126;-73
2023/07/28 09:51:31;;;;;;;5.72;4.60;;;;;;;;;;5085446;28;20047;-73
2023/07/28 09:54:12;;;;;;;5.88;4.20;;;;;;;;;;5086395;27;20475;-73
2023/07/28 09:56:39;;;;;;;7.38;4.43;;;;;;;;;;5069496;28;20074;-73
2023/07/28 09:59:11;;;;;;;5.00;4.32;;;;;;;;;;5086206;27;20055;-72
2023/07/28 10:01:38;;;;;;;5.35;3.97;;;;;;;;;;5102779;28;20055;-80
2023/07/28 10:04:05;;;;;;;4.95;4.55;;;;;;;;;;5080901;28;20487;-79
2023/07/28 10:06:33;;;;;;;6.97;5.85;;;21.50;99.90;;;;;;5085070;28;20567;-80
2023/07/28 10:09:00;;;;;;;9.43;6.25;;;;;;;;;;5066766;28;20048;-80
2023/07/28 10:11:26;;;;;;;6.32;5.40;;;;;;;;;;5100972;28;20436;-79
2023/07/28 10:13:54;;;;;;;8.20;5.70;;;;;;;;;;5101641;28;20043;-79
2023/07/28 10:16:30;;;;;;;11.18;6.05;;;;;;;;;;5084003;28;20948;-79
2023/07/28 10:18:56;;;;;;;7.03;5.57;;;;;;;;;;5082913;28;20075;-79
2023/07/28 10:21:27;;;;;;;9.13;5.85;;;;;;;;;;5068450;28;20433;-79
2023/07/28 10:23:57;;;;;;;8.70;5.63;;;;;;;;;;5101965;28;20047;-79
2023/07/28 10:26:35;;;;;;;6.22;5.60;;;;;;;;;;5101358;28;20123;-80
2023/07/28 10:29:15;;;;;;;10.02;5.47;;;;;;;;;;5085090;28;20419;-79
2023/07/28 10:31:54;;;;;;;5.93;5.32;;;;;;;;;;5099887;27;20047;-79
2023/07/28 10:34:21;;;;;;;6.53;5.90;;;;;;;;;;5066625;28;20274;-80
2023/07/28 10:36:56;;;;;;;5.97;5.38;;;;;;;;;;5083282;28;20043;-79
2023/07/28 10:39:22;;;;;;;8.38;5.18;;;;;;;;;;5085115;28;20047;-79
2023/07/28 10:42:11;;;;;;;6.88;5.20;;;;;;;;;;5100946;28;22135;-76
2023/07/28 10:44:37;;;;;;;6.90;5.90;;;;;;;;;;5090121;28;20138;-77
2023/07/28 10:47:09;;;;;;;7.47;6.15;;;;;;;;;;5086076;28;20220;-77
2023/07/28 10:49:35;;;;;;;7.22;6.10;;;;;;;;;;5068088;28;21974;-77
2023/07/28 10:52:01;;;;;;;13.20;7.00;;;;;;;;;;5066162;28;20066;-77
2023/07/28 10:54:27;;;;;;;6.35;5.63;;;;;;;;;;5084527;28;20048;-77
2023/07/28 10:56:53;;;;;;;9.27;5.90;;;;;;;;;;5090233;28;20044;-78
2023/07/28 10:59:20;;;;;;;6.97;5.35;;;;;;;;;;5080031;28;20138;-76
2023/07/28 11:01:47;;;;;;;11.23;6.18;;;;;;;;;;5079051;28;20063;-76
2023/07/28 11:04:17;;;;;;;6.20;5.60;;;;;;;;;;5076602;27;20048;-76
2023/07/28 11:06:47;;;;;;;6.38;5.43;;;;;;;;;;5077864;28;20155;-76
2023/07/28 11:09:15;;;;;;;6.40;5.28;;;;;;;;;;5078900;28;20052;-82
2023/07/28 11:11:41;;;;;;;7.15;5.28;;;;;;;;;;5109485;28;20174;-81
2023/07/28 11:14:08;;;;;;;11.90;8.38;;;;;;;;;;5087505;28;20035;-86
2023/07/28 11:16:42;;;;;;;15.38;13.75;;;;;;;;;;5091036;28;20052;-85
2023/07/28 11:19:12;;;;;;;5.28;4.78;;;;;;;;;;5109806;28;20054;-86
2023/07/28 11:21:41;;;;;;;5.65;5.15;;;;;;;;;;5089205;28;20051;-86
2023/07/28 11:24:08;;;;;;;6.47;4.95;;;;;;;;;;5084436;28;20047;-84
2023/07/28 11:26:35;;;;;;;4.03;3.63;;;;;;;;;;5087536;28;20043;-87
2023/07/28 11:29:02;;;;;;;12.43;11.13;;;;;;;;;;5102788;28;20105;-85
2023/07/28 11:31:28;;;;;;;5.97;5.47;;;;;;;;;;5101736;28;20048;-87
2023/07/28 11:33:54;;;;;;;2.28;2.08;;;;;;;;;;5077564;28;20059;-77
2023/07/28 11:36:27;;;;;;;4.82;3.70;;;;;;;;;;5072853;28;20048;-78
2023/07/28 11:38:54;;;;;;;3.63;3.33;;;;;;;;;;5061623;28;20043;-78
2023/07/28 11:41:21;;;;;;;5.28;4.00;;;;;;;;;;5075366;28;20048;-77
2023/07/28 11:43:50;;;;;;;4.00;3.60;;;;;;;;;;5053173;28;20606;-79
2023/07/28 11:46:35;;;;;;;4.70;3.20;;;;;;;;;;5065462;28;20614;-78
2023/07/28 11:49:11;;;;;;;4.45;3.05;;;;;;;;;;5083667;28;20063;-78
2023/07/28 11:51:44;;;;;;;3.40;3.00;;;;;;;;;;5068368;28;20138;-77
2023/07/28 11:54:13;;;;;;;7.22;2.85;;;;;;;;;;5066592;28;20051;-77
2023/07/28 11:56:40;;;;;;;2.75;2.55;;;;;;;;;;5087797;28;20063;-78
2023/07/28 11:59:07;;;;;;;4.80;3.05;;;;;;;;;;5056204;28;20486;-77
2023/07/28 12:01:33;;;;;;;3.78;2.90;;;;;;;;;;5064415;28;20082;-77
2023/07/28 12:04:00;;;;;;;4.35;2.83;;;;;;;;;;5083077;28;20514;-77
2023/07/28 12:06:26;;;;;;;6.05;2.72;;;;;;;;;;5063753;28;20488;-77
2023/07/28 12:08:52;;;;;;;5.00;2.88;;;;;;;;;;5049163;28;20775;-78
2023/07/28 12:11:18;;;;;;;3.80;2.92;;;;;;;;;;5068446;28;20043;-78
2023/07/28 12:13:51;;;;;;;6.20;3.05;;;;;;;;;;5069482;28;20109;-78
2023/07/28 12:16:36;;;;;;;3.30;2.95;;;;;;;;;;5067822;28;20040;-78
2023/07/28 12:19:04;;;;;;;4.10;3.22;;;;;;;;;;5085713;28;20048;-77
2023/07/28 12:21:31;;;;;;;4.30;3.03;;;;;;;;;;5047117;28;20708;-75
2023/07/28 12:23:57;;;;;;;4.18;2.80;;;;;;;;;;5063085;28;20062;-75
2023/07/28 12:26:23;;;;;;;4.03;2.30;;;;;;;;;;5068286;27;20048;-74
2023/07/28 12:28:49;;;;;;;3.08;2.50;;;;;;;;;;5053477;28;20144;-75
2023/07/28 12:31:16;;;;;;;3.40;2.83;;;;;;;;;;5064156;27;20043;-74
2023/07/28 12:33:42;;;;;;;2.60;2.40;;;;;;;;;;5065436;28;20042;-75
2023/07/28 12:36:09;;;;;;;2.75;2.13;;;;;;;;;;5061206;28;20043;-75
2023/07/28 12:38:35;;;;;;;2.60;2.05;;;;;;;;;;5067660;28;20193;-75
2023/07/28 12:41:01;;;;;;;2.83;2.20;;;;;;;;;;5065621;28;20059;-75
2023/07/28 12:43:28;;;;;;;2.85;1.90;;;;;;;;;;5071223;28;20140;-74
2023/07/28 12:45:55;;;;;;;2.95;1.88;;;;;;;;;;5052421;28;20203;-75
2023/07/28 12:48:21;;;;;;;2.78;2.20;;;;;;;;;;5066640;28;20058;-74
2023/07/28 12:50:47;;;;;;;3.42;2.33;;;;;;;;;;5054465;28;20116;-74
2023/07/28 12:53:13;;;;;;;4.25;2.28;;;;;;;;;;5087661;28;20166;-73
2023/07/28 12:55:40;;;;;;;2.78;2.30;;;;;;;;;;5070765;28;20051;-74
2023/07/28 12:58:06;;;;;;;4.13;2.10;;;;;;;;;;5067617;28;20051;-74
2023/07/28 13:00:32;;;;;;;2.50;2.30;;;;;;;;;;5086636;28;20051;-74
2023/07/28 13:02:58;;;;;;;2.78;2.20;;;;;;;;;;5073267;28;20655;-74
2023/07/28 13:05:24;;;;;;;5.00;2.17;;;;;;;;;;5069630;28;20522;-73
2023/07/28 13:07:50;;;;;;;2.88;1.92;;;;;;;;;;5066311;28;20047;-74
2023/07/28 13:10:17;;;;;;;3.55;2.65;;;;;;;;;;5083709;28;20060;-75
2023/07/28 13:12:43;;;;;;;2.88;2.50;;;;;;;;;;5050859;28;20605;-75
2023/07/28 13:15:09;;;;;;;4.55;2.55;;;;;;;;;;5045010;28;20071;-76
2023/07/28 13:17:35;;;;;;;4.75;2.60;;;;;;;;;;5066157;28;20679;-74
2023/07/28 13:20:01;;;;;;;2.67;2.47;;;;;;;;;;5060339;28;20054;-75
2023/07/28 13:22:30;;;;;;;4.20;2.88;;;;;;;;;;5089591;28;20044;-75
2023/07/28 13:24:56;;;;;;;8.13;2.83;;;;;;;;;;5084069;27;20193;-75
2023/07/28 13:27:22;;;;;;;2.53;2.40;;;;;;;;;;5046309;28;20059;-75
2023/07/28 13:29:49;;;;;;;4.03;2.67;;;;;;;;;;5066912;27;21789;-75
2023/07/28 13:32:17;;;;;;;2.47;2.35;;;;;;;;;;5078379;28;20051;-75
2023/07/28 13:34:43;;;;;;;3.60;2.60;;;;;;;;;;5082854;28;20083;-76
2023/07/28 13:37:09;;;;;;;3.00;2.42;;;;;;;;;;5043431;28;20408;-75
2023/07/28 13:39:35;;;;;;;3.55;2.00;;;;;;;;;;5065716;28;20061;-75
2023/07/28 13:42:01;;;;;;;3.78;2.30;;;;;;;;;;5050248;28;20048;-75
2023/07/28 13:44:27;;;;;;;3.53;2.60;;;;;;;;;;5046516;28;20058;-75
2023/07/28 13:46:53;;;;;;;2.75;2.55;;;;;;;;;;5062308;28;20052;-75
2023/07/28 13:49:19;;;;;;;4.40;2.47;;;;;;;;;;5060546;28;20048;-75
2023/07/28 13:51:46;;;;;;;2.58;2.22;;;;;;;;;;5045594;28;20050;-76
2023/07/28 13:54:12;;;;;;;3.95;2.55;;;;;;;;;;5046413;28;20154;-75
2023/07/28 13:56:38;;;;;;;2.83;2.40;;;;;;;;;;5045272;28;20048;-75
2023/07/28 13:59:05;;;;;;;2.67;2.47;;;;;;;;;;5043784;28;20079;-75
2023/07/28 14:01:31;;;;;;;2.78;2.30;;;;;;;;;;5081120;28;22562;-75
2023/07/28 14:03:58;;;;;;;2.85;2.30;;;;;;;;;;5062297;28;20055;-74
2023/07/28 14:06:24;;;;;;;2.38;2.10;;;;;;;;;;5083494;27;20512;-75
2023/07/28 14:08:50;;;;;;;3.45;2.22;;;;;;;;;;5048500;28;21017;-74
2023/07/28 14:11:16;;;;;;;3.45;2.50;;;;;;;;;;5045535;28;20546;-74
2023/07/28 14:13:42;;;;;;;4.57;2.28;;;;;;;;;;5082968;28;20131;-74
2023/07/28 14:16:10;;;;;;;6.57;2.45;;;;;;;;;;5062460;28;22499;-74
2023/07/28 14:18:36;;;;;;;4.47;3.15;;;;;;;;;;5082162;28;20215;-75
2023/07/28 14:21:02;;;;;;;3.30;2.75;;;;;;;;;;5057042;28;20448;-75
2023/07/28 14:23:29;;;;;;;3.22;2.65;;;;;;;;;;5083753;28;20558;-74
2023/07/28 14:25:55;;;;;;;3.38;2.70;;;;;;;;;;5066324;28;20050;-75
2023/07/28 14:28:22;;;;;;;2.85;2.25;;;;;;;;;;5058769;28;20062;-76